createdAt,value
2019-05-19T00:01:08.750Z,15.68
2019-05-19T00:03:39.102Z,15.54
2019-05-19T00:06:09.604Z,15.42
2019-05-19T00:08:40.463Z,14.92
2019-05-19T00:11:10.837Z,14.79
2019-05-19T00:13:41.271Z,15.08
2019-05-19T00:16:11.828Z,15.19
2019-05-19T00:18:42.381Z,15.37
2019-05-19T00:21:12.909Z,14.92
2019-05-19T00:23:43.277Z,14.53
2019-05-19T00:26:14.046Z,14.70
2019-05-19T00:28:44.751Z,15.06
2019-05-19T00:31:15.214Z,14.96
2019-05-19T00:33:45.701Z,14.79
2019-05-19T00:36:19.414Z,14.69
2019-05-19T00:38:48.487Z,14.48
2019-05-19T00:41:18.799Z,14.36
2019-05-19T00:43:49.870Z,14.42
2019-05-19T00:46:20.423Z,14.34
2019-05-19T00:48:50.823Z,14.06
2019-05-19T00:51:22.170Z,13.99
2019-05-19T00:53:52.525Z,14.43
2019-05-19T00:56:23.579Z,14.74
2019-05-19T00:58:55.163Z,14.58
2019-05-19T01:01:25.559Z,14.27
2019-05-19T01:03:56.328Z,13.95
2019-05-19T01:06:26.985Z,13.82
2019-05-19T01:08:57.346Z,13.92
2019-05-19T01:11:28.093Z,14.16
2019-05-19T01:13:58.731Z,14.08
2019-05-19T01:16:29.078Z,13.84
2019-05-19T01:18:59.874Z,13.96
2019-05-19T01:21:30.716Z,13.85
2019-05-19T01:24:01.419Z,13.84
2019-05-19T01:26:31.996Z,13.61
2019-05-19T01:29:02.431Z,13.52
2019-05-19T01:31:33.409Z,13.36
2019-05-19T01:34:04.128Z,13.44
2019-05-19T01:36:34.474Z,13.52
2019-05-19T01:39:05.529Z,13.44
2019-05-19T01:41:36.257Z,13.33
2019-05-19T01:44:06.583Z,13.45
2019-05-19T01:46:37.132Z,13.45
2019-05-19T01:49:07.517Z,13.75
2019-05-19T01:51:37.848Z,13.85
2019-05-19T01:54:08.331Z,13.97
2019-05-19T01:56:38.680Z,14.19
2019-05-19T01:59:09.419Z,13.87
2019-05-19T02:01:40.041Z,13.67
2019-05-19T02:04:10.355Z,13.90
2019-05-19T02:06:40.995Z,13.69
2019-05-19T02:09:12.755Z,13.34
2019-05-19T02:11:43.174Z,13.22
2019-05-19T02:14:13.578Z,13.17
2019-05-19T02:16:44.468Z,13.23
2019-05-19T02:19:14.800Z,13.24
2019-05-19T02:21:45.087Z,13.25
2019-05-19T02:24:15.790Z,13.62
2019-05-19T02:26:46.430Z,13.30
2019-05-19T02:29:17.247Z,13.34
2019-05-19T02:31:47.564Z,13.72
2019-05-19T02:34:17.946Z,13.46
2019-05-19T02:36:48.635Z,13.36
2019-05-19T02:39:18.984Z,13.86
2019-05-19T02:41:50.936Z,14.01
2019-05-19T02:44:22.773Z,13.65
2019-05-19T02:46:54.073Z,13.68
2019-05-19T02:49:27.024Z,13.64
2019-05-19T02:51:59.405Z,13.80
2019-05-19T02:54:30.873Z,13.67
2019-05-19T02:57:03.103Z,13.58
2019-05-19T02:59:34.911Z,13.78
2019-05-19T03:02:09.079Z,13.31
2019-05-19T03:04:39.827Z,13.34
2019-05-19T03:07:10.398Z,13.57
2019-05-19T03:09:40.749Z,13.64
2019-05-19T03:12:11.724Z,13.35
2019-05-19T03:14:42.574Z,13.10
2019-05-19T03:17:12.907Z,13.16
2019-05-19T03:19:43.326Z,13.46
2019-05-19T03:22:13.752Z,12.98
2019-05-19T03:24:44.173Z,13.08
2019-05-19T03:27:14.737Z,12.98
2019-05-19T03:29:50.140Z,13.35
2019-05-19T03:32:32.773Z,13.55
2019-05-19T03:35:03.543Z,13.57
2019-05-19T03:37:33.879Z,13.45
2019-05-19T03:40:06.193Z,13.49
2019-05-19T03:42:36.948Z,13.20
2019-05-19T03:45:07.374Z,13.20
2019-05-19T03:47:37.934Z,13.22
2019-05-19T03:50:08.385Z,13.45
2019-05-19T03:52:38.684Z,13.31
2019-05-19T03:55:09.158Z,13.53
2019-05-19T03:57:39.924Z,13.51
2019-05-19T04:00:10.843Z,13.78
2019-05-19T04:02:41.190Z,13.93
2019-05-19T04:05:12.219Z,14.06
2019-05-19T04:07:42.744Z,14.04
2019-05-19T04:10:13.507Z,14.29
2019-05-19T04:12:44.338Z,14.40
2019-05-19T04:15:15.854Z,14.59
2019-05-19T04:17:46.198Z,14.61
2019-05-19T04:20:17.383Z,14.86
2019-05-19T04:22:48.041Z,14.89
2019-05-19T04:25:18.386Z,15.04
2019-05-19T04:27:48.821Z,15.35
2019-05-19T04:30:19.803Z,15.46
2019-05-19T04:32:50.121Z,15.51
2019-05-19T04:35:20.908Z,15.67
2019-05-19T04:37:51.289Z,15.75
2019-05-19T04:40:23.021Z,16.01
2019-05-19T04:42:53.793Z,16.19
2019-05-19T04:45:24.091Z,16.29
2019-05-19T04:47:54.645Z,16.32
2019-05-19T04:50:25.118Z,16.26
2019-05-19T04:52:55.456Z,16.24
2019-05-19T04:55:25.919Z,16.41
2019-05-19T04:57:56.581Z,16.68
2019-05-19T05:00:26.959Z,16.84
2019-05-19T05:02:57.285Z,17.10
2019-05-19T05:05:28.110Z,17.27
2019-05-19T05:07:58.800Z,17.47
2019-05-19T05:10:29.664Z,17.87
2019-05-19T05:13:00.180Z,17.87
2019-05-19T05:15:30.489Z,18.22
2019-05-19T05:18:00.927Z,18.40
2019-05-19T05:20:31.227Z,18.57
2019-05-19T05:23:02.420Z,18.75
2019-05-19T05:25:33.228Z,18.59
2019-05-19T05:28:03.745Z,18.67
2019-05-19T05:30:34.129Z,18.85
2019-05-19T05:33:04.955Z,18.78
2019-05-19T05:35:35.609Z,18.90
2019-05-19T05:38:06.103Z,18.96
2019-05-19T05:40:36.461Z,18.93
2019-05-19T05:43:06.777Z,18.88
2019-05-19T05:45:37.474Z,19.13
2019-05-19T05:48:07.816Z,19.19
2019-05-19T05:50:38.227Z,19.25
2019-05-19T05:53:08.728Z,19.26
2019-05-19T05:55:39.514Z,19.37
2019-05-19T05:58:09.807Z,19.43
2019-05-19T06:00:40.361Z,19.48
2019-05-19T06:03:11.039Z,19.61
2019-05-19T06:05:41.334Z,19.71
2019-05-19T06:08:13.021Z,19.69
2019-05-19T06:10:43.325Z,19.69
2019-05-19T06:13:14.191Z,20.25
2019-05-19T06:15:44.564Z,20.29
2019-05-19T06:18:14.914Z,20.30
2019-05-19T06:20:46.268Z,20.27
2019-05-19T06:23:17.178Z,20.27
2019-05-19T06:25:47.498Z,20.59
2019-05-19T06:28:18.126Z,20.84
2019-05-19T06:30:48.811Z,20.95
2019-05-19T06:33:19.152Z,21.23
2019-05-19T06:35:49.608Z,21.17
2019-05-19T06:38:20.302Z,21.44
2019-05-19T06:40:50.619Z,21.18
2019-05-19T06:43:21.273Z,21.09
2019-05-19T06:45:51.584Z,21.41
2019-05-19T06:48:21.996Z,21.39
2019-05-19T06:50:52.407Z,21.62
2019-05-19T06:53:22.692Z,21.73
2019-05-19T06:55:53.132Z,22.15
2019-05-19T06:58:23.868Z,22.23
2019-05-19T07:00:54.270Z,22.45
2019-05-19T07:03:24.608Z,22.67
2019-05-19T07:05:55.100Z,22.72
2019-05-19T07:08:25.607Z,22.49
2019-05-19T07:10:55.947Z,22.13
2019-05-19T07:13:26.459Z,22.21
2019-05-19T07:15:56.885Z,22.71
2019-05-19T07:18:27.294Z,23.09
2019-05-19T07:20:57.630Z,23.23
2019-05-19T07:23:28.903Z,23.33
2019-05-19T07:25:59.856Z,23.48
2019-05-19T07:28:30.316Z,23.59
2019-05-19T07:31:00.616Z,23.07
2019-05-19T07:33:31.238Z,23.18
2019-05-19T07:36:01.913Z,23.44
2019-05-19T07:38:32.256Z,23.80
2019-05-19T07:41:03.039Z,24.11
2019-05-19T07:43:33.845Z,24.45
2019-05-19T07:46:04.239Z,24.71
2019-05-19T07:48:34.804Z,24.61
2019-05-19T07:51:05.159Z,24.61
2019-05-19T07:53:43.121Z,24.82
2019-05-19T07:56:08.321Z,25.06
2019-05-19T07:58:39.670Z,25.37
2019-05-19T08:01:10.426Z,25.68
2019-05-19T08:03:41.103Z,25.68
2019-05-19T08:06:11.653Z,26.02
2019-05-19T08:08:42.146Z,26.38
2019-05-19T08:11:12.754Z,26.16
2019-05-19T08:13:43.165Z,26.11
2019-05-19T08:16:13.477Z,26.60
2019-05-19T08:18:43.934Z,26.28
2019-05-19T08:21:14.346Z,26.66
2019-05-19T08:23:59.271Z,26.87
2019-05-19T08:26:18.322Z,27.06
2019-05-19T08:28:48.896Z,27.02
2019-05-19T08:31:19.345Z,27.28
2019-05-19T08:33:50.145Z,27.78
2019-05-19T08:36:20.901Z,27.56
2019-05-19T08:38:51.408Z,27.78
2019-05-19T08:41:21.947Z,27.61
2019-05-19T08:43:53.453Z,27.53
2019-05-19T08:46:23.970Z,27.44
2019-05-19T08:48:54.342Z,27.70
2019-05-19T08:51:24.776Z,27.72
2019-05-19T08:53:55.443Z,27.76
2019-05-19T08:56:25.873Z,27.67
2019-05-19T08:58:56.273Z,27.77
2019-05-19T09:01:27.106Z,28.14
2019-05-19T09:03:57.900Z,28.26
2019-05-19T09:06:28.611Z,28.38
2019-05-19T09:08:59.135Z,28.55
2019-05-19T09:11:29.778Z,28.65
2019-05-19T09:14:00.104Z,28.90
2019-05-19T09:16:30.490Z,28.88
2019-05-19T09:19:00.902Z,28.87
2019-05-19T09:21:31.282Z,28.75
2019-05-19T09:24:02.203Z,28.71
2019-05-19T09:26:32.582Z,28.59
2019-05-19T09:29:03.357Z,28.79
2019-05-19T09:31:34.128Z,28.95
2019-05-19T09:34:04.441Z,28.89
2019-05-19T09:36:34.829Z,28.76
2019-05-19T09:39:07.096Z,28.94
2019-05-19T09:41:37.449Z,29.09
2019-05-19T09:44:07.907Z,29.67
2019-05-19T09:46:38.662Z,29.74
2019-05-19T09:49:46.241Z,29.87
2019-05-19T09:52:17.254Z,29.73
2019-05-19T09:54:48.153Z,29.59
2019-05-19T09:57:18.614Z,30.28
2019-05-19T09:59:49.346Z,30.46
2019-05-19T10:02:19.711Z,30.42
2019-05-19T10:04:50.051Z,30.53
2019-05-19T10:07:21.846Z,30.44
2019-05-19T10:10:06.836Z,31.16
2019-05-19T10:12:37.190Z,31.35
2019-05-19T10:15:09.715Z,31.91
2019-05-19T10:17:40.126Z,32.11
2019-05-19T10:20:10.832Z,31.31
2019-05-19T10:22:41.769Z,31.01
2019-05-19T10:25:22.531Z,31.76
2019-05-19T10:27:45.283Z,32.12
2019-05-19T10:30:17.734Z,32.04
2019-05-19T10:32:48.078Z,31.61
2019-05-19T10:35:19.096Z,31.86
2019-05-19T10:37:49.900Z,31.96
2019-05-19T10:40:20.266Z,31.84
2019-05-19T10:42:50.961Z,32.10
2019-05-19T10:45:21.527Z,32.40
2019-05-19T10:47:51.863Z,31.88
2019-05-19T10:50:22.533Z,32.16
2019-05-19T10:52:53.230Z,32.32
2019-05-19T10:55:35.525Z,32.42
2019-05-19T10:57:55.695Z,32.62
2019-05-19T11:00:26.155Z,32.40
2019-05-19T11:02:56.993Z,32.68
2019-05-19T11:05:27.816Z,32.62
2019-05-19T11:07:58.322Z,32.39
2019-05-19T11:10:28.871Z,32.73
2019-05-19T11:12:59.589Z,33.14
2019-05-19T11:16:22.938Z,33.27
2019-05-19T11:18:53.578Z,33.56
2019-05-19T11:21:24.186Z,33.72
2019-05-19T11:23:55.523Z,33.95
2019-05-19T11:26:25.820Z,34.09
2019-05-19T11:28:57.911Z,34.17
2019-05-19T11:31:28.530Z,34.54
2019-05-19T11:33:59.235Z,34.18
2019-05-19T11:36:29.617Z,33.47
2019-05-19T11:39:00.131Z,33.06
2019-05-19T11:41:30.732Z,33.36
2019-05-19T11:44:01.068Z,33.33
2019-05-19T11:47:06.907Z,32.58
2019-05-19T11:49:37.700Z,33.33
2019-05-19T11:52:08.230Z,32.93
2019-05-19T11:54:38.603Z,32.44
2019-05-19T11:57:09.267Z,32.37
2019-05-19T11:59:39.789Z,33.09
2019-05-19T12:02:10.105Z,33.16
2019-05-19T12:04:41.019Z,32.85
2019-05-19T12:07:11.311Z,33.00
2019-05-19T12:09:41.954Z,32.56
2019-05-19T12:12:12.689Z,32.49
2019-05-19T12:14:43.106Z,32.16
2019-05-19T12:17:14.763Z,32.38
2019-05-19T12:19:45.476Z,32.09
2019-05-19T12:22:16.041Z,31.75
2019-05-19T12:24:46.699Z,30.69
2019-05-19T12:27:17.546Z,31.77
2019-05-19T12:29:47.955Z,31.13
2019-05-19T12:32:18.558Z,31.08
2019-05-19T12:34:49.290Z,30.80
2019-05-19T12:37:19.819Z,30.86
2019-05-19T12:39:50.288Z,30.89
2019-05-19T12:42:20.847Z,30.97
2019-05-19T12:44:51.287Z,30.90
2019-05-19T12:47:21.662Z,30.69
2019-05-19T12:49:52.370Z,30.62
2019-05-19T12:52:22.962Z,30.25
2019-05-19T12:54:53.353Z,30.31
2019-05-19T12:57:24.054Z,30.18
2019-05-19T12:59:54.640Z,29.97
2019-05-19T13:02:25.053Z,29.89
2019-05-19T13:05:04.698Z,29.68
2019-05-19T13:07:27.867Z,28.90
2019-05-19T13:09:58.314Z,29.44
2019-05-19T13:12:28.784Z,29.30
2019-05-19T13:14:59.127Z,29.05
2019-05-19T13:17:29.515Z,28.82
2019-05-19T13:20:01.190Z,28.74
2019-05-19T13:22:31.546Z,28.62
2019-05-19T13:25:02.188Z,28.47
2019-05-19T13:27:33.773Z,28.69
2019-05-19T13:30:04.501Z,28.62
2019-05-19T13:32:34.981Z,28.80
2019-05-19T13:35:06.107Z,28.84
2019-05-19T13:37:36.467Z,28.70
2019-05-19T13:40:07.217Z,28.72
2019-05-19T13:42:37.596Z,28.58
2019-05-19T13:45:10.217Z,28.31
2019-05-19T13:47:41.013Z,28.43
2019-05-19T13:50:12.509Z,28.52
2019-05-19T13:52:43.026Z,28.45
2019-05-19T13:55:14.056Z,28.52
2019-05-19T13:57:44.416Z,28.72
2019-05-19T14:00:16.309Z,28.95
2019-05-19T14:02:46.953Z,28.81
2019-05-19T14:05:17.299Z,28.92
2019-05-19T14:07:47.630Z,29.04
2019-05-19T14:10:18.189Z,29.22
2019-05-19T14:12:48.525Z,29.23
2019-05-19T14:15:18.956Z,29.52
2019-05-19T14:17:49.244Z,29.48
2019-05-19T14:20:19.860Z,29.43
2019-05-19T14:22:50.584Z,28.94
2019-05-19T14:25:21.047Z,28.52
2019-05-19T14:27:51.351Z,28.07
2019-05-19T14:30:22.041Z,28.05
2019-05-19T14:32:52.611Z,27.56
2019-05-19T14:35:23.094Z,27.48
2019-05-19T14:37:53.935Z,26.87
2019-05-19T14:40:24.313Z,26.84
2019-05-19T14:42:59.143Z,26.58
2019-05-19T14:45:29.571Z,25.98
2019-05-19T14:47:59.868Z,26.03
2019-05-19T14:50:30.702Z,25.61
2019-05-19T14:53:01.149Z,25.85
2019-05-19T14:55:32.600Z,25.88
2019-05-19T14:58:03.293Z,25.48
2019-05-19T15:00:34.041Z,25.63
2019-05-19T15:03:04.382Z,25.50
2019-05-19T15:05:35.134Z,25.89
2019-05-19T15:08:05.793Z,25.97
2019-05-19T15:10:36.094Z,25.77
2019-05-19T15:13:06.598Z,25.66
2019-05-19T15:15:37.004Z,25.84
2019-05-19T15:18:07.355Z,25.71
2019-05-19T15:20:37.788Z,25.43
2019-05-19T15:23:08.157Z,25.59
2019-05-19T15:25:38.922Z,25.66
2019-05-19T15:28:10.742Z,26.14
2019-05-19T15:30:41.061Z,26.52
2019-05-19T15:33:11.657Z,26.66
2019-05-19T15:35:42.318Z,26.12
2019-05-19T15:38:12.625Z,26.19
2019-05-19T15:40:43.004Z,27.02
2019-05-19T15:43:13.855Z,27.93
2019-05-19T15:45:44.209Z,28.46
2019-05-19T15:48:14.510Z,29.16
2019-05-19T15:50:45.150Z,29.72
2019-05-19T15:53:15.501Z,29.94
2019-05-19T15:55:46.254Z,29.44
2019-05-19T15:58:17.242Z,29.08
2019-05-19T16:00:47.885Z,28.94
2019-05-19T16:03:18.732Z,29.43
2019-05-19T16:05:49.065Z,29.56
2019-05-19T16:08:19.421Z,29.29
2019-05-19T16:10:50.070Z,29.33
2019-05-19T16:13:22.027Z,28.84
2019-05-19T16:15:53.480Z,28.41
2019-05-19T16:18:24.172Z,28.17
2019-05-19T16:20:54.822Z,27.61
2019-05-19T16:23:25.262Z,26.62
2019-05-19T16:25:55.644Z,26.19
2019-05-19T16:28:30.590Z,25.29
2019-05-19T16:30:58.234Z,25.25
2019-05-19T16:33:28.902Z,24.79
2019-05-19T16:35:59.298Z,24.64
2019-05-19T16:38:29.692Z,24.37
2019-05-19T16:41:00.085Z,24.03
2019-05-19T16:43:30.445Z,23.67
2019-05-19T16:46:01.193Z,23.33
2019-05-19T16:48:32.042Z,23.45
2019-05-19T16:51:02.386Z,23.08
2019-05-19T16:53:33.122Z,23.19
2019-05-19T16:56:03.832Z,23.15
2019-05-19T16:58:44.887Z,23.11
2019-05-19T17:01:06.645Z,22.86
2019-05-19T17:03:37.374Z,22.78
2019-05-19T17:06:07.729Z,22.65
2019-05-19T17:08:38.098Z,22.49
2019-05-19T17:11:18.025Z,22.33
2019-05-19T17:13:41.417Z,22.27
2019-05-19T17:16:11.785Z,22.18
2019-05-19T17:18:43.637Z,22.14
2019-05-19T17:21:14.317Z,22.13
2019-05-19T17:23:44.607Z,22.14
2019-05-19T17:26:15.460Z,22.02
2019-05-19T17:28:59.759Z,22.15
2019-05-19T17:31:18.342Z,22.39
2019-05-19T17:33:48.929Z,22.20
2019-05-19T17:36:19.221Z,22.14
2019-05-19T17:38:49.936Z,22.32
2019-05-19T17:41:20.353Z,22.44
2019-05-19T17:43:50.649Z,22.33
2019-05-19T17:46:21.410Z,22.05
2019-05-19T17:48:52.115Z,21.64
2019-05-19T17:51:22.482Z,21.32
2019-05-19T17:53:53.135Z,21.19
2019-05-19T17:56:24.105Z,21.21
2019-05-19T17:58:54.793Z,21.14
2019-05-19T18:01:25.538Z,21.20
2019-05-19T18:03:55.880Z,21.14
2019-05-19T18:06:29.704Z,21.20
2019-05-19T18:08:58.697Z,21.18
2019-05-19T18:11:28.993Z,21.13
2019-05-19T18:13:59.395Z,21.11
2019-05-19T18:16:30.138Z,20.97
2019-05-19T18:19:01.428Z,20.88
2019-05-19T18:21:32.048Z,20.91
2019-05-19T18:24:02.807Z,20.86
2019-05-19T18:26:33.180Z,20.72
2019-05-19T18:29:05.065Z,20.60
2019-05-19T18:31:35.599Z,20.58
2019-05-19T18:34:06.431Z,20.55
2019-05-19T18:36:37.128Z,20.34
2019-05-19T18:39:07.703Z,20.48
2019-05-19T18:41:38.111Z,20.21
2019-05-19T18:44:08.870Z,20.18
2019-05-19T18:46:39.165Z,20.18
2019-05-19T18:49:10.039Z,20.14
2019-05-19T18:51:40.957Z,20.10
2019-05-19T18:54:11.371Z,19.95
2019-05-19T18:56:41.666Z,20.02
2019-05-19T18:59:12.564Z,20.08
2019-05-19T19:01:43.198Z,20.11
2019-05-19T19:04:13.646Z,20.03
2019-05-19T19:06:45.159Z,20.04
2019-05-19T19:09:15.483Z,20.17
2019-05-19T19:11:45.860Z,20.14
2019-05-19T19:14:16.159Z,19.97
2019-05-19T19:16:46.462Z,20.05
2019-05-19T19:19:17.327Z,19.89
2019-05-19T19:21:47.901Z,19.89
2019-05-19T19:24:18.242Z,19.76
2019-05-19T19:26:48.860Z,19.72
2019-05-19T19:29:19.521Z,19.66
2019-05-19T19:31:49.845Z,19.60
2019-05-19T19:34:20.644Z,19.61
2019-05-19T19:36:50.928Z,19.66
2019-05-19T19:39:21.566Z,19.63
2019-05-19T19:41:51.893Z,19.65
2019-05-19T19:44:22.239Z,19.56
2019-05-19T19:46:53.750Z,19.59
2019-05-19T19:49:24.567Z,19.48
2019-05-19T19:51:54.933Z,19.44
2019-05-19T19:54:25.528Z,19.38
2019-05-19T19:56:56.180Z,19.29
2019-05-19T19:59:26.474Z,19.33
2019-05-19T20:01:57.063Z,19.47
2019-05-19T20:04:29.391Z,19.20
2019-05-19T20:06:59.712Z,19.21
2019-05-19T20:09:30.170Z,19.32
2019-05-19T20:12:00.513Z,19.19
2019-05-19T20:14:31.143Z,19.20
2019-05-19T20:17:01.757Z,19.14
2019-05-19T20:19:32.148Z,19.27
2019-05-19T20:22:02.761Z,19.15
2019-05-19T20:24:33.316Z,19.27
2019-05-19T20:27:03.654Z,19.46
2019-05-19T20:29:34.018Z,19.67
2019-05-19T20:32:04.849Z,19.78
2019-05-19T20:34:35.146Z,19.52
2019-05-19T20:37:05.823Z,19.30
2019-05-19T20:39:36.467Z,19.21
2019-05-19T20:42:06.861Z,19.34
2019-05-19T20:44:37.494Z,19.59
2019-05-19T20:47:07.840Z,19.56
2019-05-19T20:49:38.240Z,19.14
2019-05-19T20:52:09.073Z,18.86
2019-05-19T20:54:39.400Z,18.11
2019-05-19T20:57:10.917Z,18.31
2019-05-19T20:59:41.451Z,18.73
2019-05-19T21:02:11.901Z,19.24
2019-05-19T21:04:42.281Z,19.07
2019-05-19T21:07:12.983Z,18.58
2019-05-19T21:09:43.652Z,18.61
2019-05-19T21:12:13.999Z,18.78
2019-05-19T21:14:44.659Z,18.83
2019-05-19T21:17:15.381Z,18.61
2019-05-19T21:19:47.403Z,18.58
2019-05-19T21:22:18.007Z,18.68
2019-05-19T21:24:48.709Z,18.61
2019-05-19T21:27:19.035Z,18.60
2019-05-19T21:29:49.391Z,18.63
2019-05-19T21:32:19.978Z,18.89
2019-05-19T21:34:50.317Z,18.73
2019-05-19T21:37:20.647Z,17.80
2019-05-19T21:39:51.338Z,17.51
2019-05-19T21:42:21.710Z,17.83
2019-05-19T21:44:52.335Z,17.57
2019-05-19T21:47:22.822Z,17.63
2019-05-19T21:49:53.161Z,17.68
2019-05-19T21:52:27.427Z,17.68
2019-05-19T21:54:57.776Z,17.63
2019-05-19T21:57:29.209Z,17.71
2019-05-19T21:59:59.999Z,17.39
2019-05-19T22:02:30.574Z,17.67
2019-05-19T22:05:01.611Z,17.79
2019-05-19T22:07:48.801Z,17.74
2019-05-19T22:10:19.230Z,18.09
2019-05-19T22:12:49.528Z,17.69
2019-05-19T22:15:20.329Z,17.38
2019-05-19T22:17:50.635Z,17.38
2019-05-19T22:20:21.906Z,17.62
2019-05-19T22:22:52.459Z,16.96
2019-05-19T22:25:22.855Z,16.83
2019-05-19T22:27:53.631Z,17.13
2019-05-19T22:30:24.510Z,16.67
2019-05-19T22:32:55.074Z,16.67
2019-05-19T22:35:25.521Z,16.68
2019-05-19T22:37:55.981Z,17.21
2019-05-19T22:40:27.244Z,17.11
2019-05-19T22:42:57.844Z,16.51
2019-05-19T22:45:28.445Z,13.68
2019-05-19T22:47:58.801Z,17.04
2019-05-19T22:50:29.337Z,16.65
2019-05-19T22:52:59.740Z,16.91
2019-05-19T22:55:30.558Z,16.79
2019-05-19T22:58:01.267Z,16.83
2019-05-19T23:00:31.595Z,16.83
2019-05-19T23:03:02.146Z,16.82
2019-05-19T23:05:32.618Z,15.98
2019-05-19T23:08:02.908Z,16.73
2019-05-19T23:10:33.271Z,16.88
2019-05-19T23:13:04.160Z,16.08
2019-05-19T23:15:34.531Z,16.32
2019-05-19T23:18:04.904Z,16.32
2019-05-19T23:20:35.474Z,16.30
2019-05-19T23:23:06.224Z,16.27
2019-05-19T23:25:36.883Z,16.48
2019-05-19T23:28:07.244Z,16.94
2019-05-19T23:30:38.736Z,16.71
2019-05-19T23:33:09.629Z,16.21
2019-05-19T23:35:39.943Z,16.57
2019-05-19T23:38:10.340Z,16.59
2019-05-19T23:40:40.751Z,16.84
2019-05-19T23:43:12.263Z,16.67
2019-05-19T23:45:42.707Z,16.10
2019-05-19T23:48:13.279Z,16.23
2019-05-19T23:50:44.093Z,15.95
2019-05-19T23:53:14.724Z,16.25
2019-05-19T23:55:45.030Z,16.15
2019-05-19T23:58:15.349Z,16.15
